Time;durP1;ratioP1;P1;durP2;ratioP2;P2;SDS_P1;SDS_P2;PMS_P1;PMS_P2;Temp;Humidity;BMP_temperature;BMP_pressure;BME280_temperature;BME280_humidity;BME280_pressure;Samples;Min_cycle;Max_cycle;Signal;HPM_P1;HPM_P2
2022/11/08 00:01:57;;;;;;;15.55;2.03;;;;;;;20.01;100.00;96160.38;6118420;23;20060;-91
2022/11/08 00:04:23;;;;;;;14.70;2.55;;;;;;;20.18;100.00;96153.63;6118607;23;20116;-91
2022/11/08 00:15:01;;;;;;;10.82;1.55;;;;;;;19.05;100.00;96147.53;6119264;23;20346;-91
2022/11/08 00:17:28;;;;;;;9.38;1.70;;;;;;;20.03;100.00;96118.78;6118548;23;20018;-91
2022/11/08 00:19:54;;;;;;;12.00;1.85;;;;;;;20.12;100.00;96123.25;6119412;23;20029;-90
2022/11/08 00:22:20;;;;;;;10.80;2.03;;;;;;;20.35;100.00;96112.38;6117166;23;20444;-90
2022/11/08 00:24:46;;;;;;;11.45;2.00;;;;;;;20.62;100.00;96116.13;6120945;23;20005;-91
2022/11/08 00:27:20;;;;;;;13.40;2.30;;;;;;;19.29;100.00;96106.75;6118947;23;20014;-91
2022/11/08 00:29:45;;;;;;;14.77;2.67;;;;;;;20.17;100.00;96104.31;6116538;23;20009;-90
2022/11/08 00:32:14;;;;;;;11.77;2.00;;;;;;;19.83;100.00;96111.78;6116399;23;20105;-91
2022/11/08 00:34:40;;;;;;;13.90;2.30;;;;;;;20.25;100.00;96104.44;6117525;23;20404;-90
2022/11/08 00:37:06;;;;;;;10.02;1.90;;;;;;;19.58;100.00;96090.13;6119563;23;20113;-90
2022/11/08 00:39:31;;;;;;;13.68;1.83;;;;;;;19.93;100.00;96088.81;6118974;23;20006;-91
2022/11/08 00:41:57;;;;;;;11.77;1.83;;;;;;;19.70;100.00;96085.56;6091994;23;20164;-91
2022/11/08 00:44:22;;;;;;;7.80;1.45;;;;;;;19.46;100.00;96084.13;6119292;23;20009;-91
2022/11/08 00:46:48;;;;;;;9.88;2.03;;;;;;;19.15;100.00;96093.88;6092303;23;20018;-90
2022/11/08 00:49:13;;;;;;;13.02;2.03;;;;;;;20.74;100.00;96070.00;6091307;23;20037;-90
2022/11/08 00:51:39;;;;;;;11.52;1.70;;;;;;;19.90;100.00;96076.72;6092157;23;20025;-91
2022/11/08 00:54:05;;;;;;;9.90;1.77;;;;;;;20.06;100.00;96065.59;6092401;23;20014;-92
2022/11/08 00:56:31;;;;;;;10.93;1.95;;;;;;;20.06;100.00;96068.22;6118654;23;20339;-92
2022/11/08 00:58:58;;;;;;;10.50;2.15;;;;;;;19.91;100.00;96059.84;6118263;23;20021;-91
2022/11/08 01:01:26;;;;;;;10.32;1.65;;;;;;;19.35;100.00;96074.50;6092654;23;20006;-92
2022/11/08 01:03:52;;;;;;;12.05;1.80;;;;;;;20.21;100.00;96039.53;6087751;23;20018;-92
2022/11/08 01:06:19;;;;;;;12.68;2.00;;;;;;;19.80;100.00;96062.66;6088882;23;20026;-90
2022/11/08 01:08:45;;;;;;;13.10;1.92;;;;;;;19.07;100.00;96071.63;6111680;23;20014;-90
2022/11/08 01:11:14;;;;;;;11.35;1.55;;;;;;;19.14;100.00;96084.28;6111781;23;20337;-92
2022/11/08 01:13:40;;;;;;;11.88;2.35;;;;;;;20.39;100.00;96071.41;6088691;23;20457;-91
2022/11/08 01:16:06;;;;;;;13.65;2.42;;;;;;;19.76;100.00;96074.44;6085679;23;20010;-90
2022/11/08 01:18:32;;;;;;;13.05;1.88;;;;;;;19.06;100.00;96083.13;6085959;23;20021;-91
2022/11/08 01:20:58;;;;;;;9.13;1.80;;;;;;;18.63;100.00;96091.25;6087662;23;20019;-90
2022/11/08 01:23:25;;;;;;;9.70;1.40;;;;;;;18.28;100.00;96090.59;6085019;23;20073;-91
2022/11/08 01:25:51;;;;;;;10.77;1.85;;;;;;;17.33;100.00;96073.59;6085254;23;20010;-89
2022/11/08 01:28:16;;;;;;;12.95;2.17;;;;;;;18.25;100.00;96082.94;6087633;23;20436;-91
2022/11/08 01:30:43;;;;;;;8.10;1.52;;;;;;;18.36;100.00;96084.69;6089052;23;20131;-90
2022/11/08 01:33:09;;;;;;;9.40;2.00;;;;;;;18.08;100.00;96071.16;6090691;23;20006;-91
2022/11/08 01:35:36;;;;;;;9.38;1.85;;;;;;;19.05;100.00;96096.47;6087887;23;20041;-92
2022/11/08 01:38:02;;;;;;;13.48;2.13;;;;;;;18.19;100.00;96147.59;6111651;23;20006;-91
2022/11/08 01:40:29;;;;;;;10.43;1.40;;;;;;;19.18;100.00;96260.91;6087315;23;20097;-92
2022/11/08 01:42:54;;;;;;;6.72;0.90;;;;;;;27.65;100.00;96616.34;6111583;23;20101;-92
2022/11/08 01:45:57;;;;;;;8.20;1.10;;;;;;;33.23;100.00;97025.00;6090833;23;20116;-90
2022/11/08 01:48:25;;;;;;;7.53;1.05;;;;;;;19.07;100.00;96267.09;6091348;23;20010;-92
2022/11/08 01:50:51;;;;;;;6.40;1.00;;;;;;;17.92;100.00;96358.97;6089104;23;20074;-92
2022/11/08 01:53:18;;;;;;;5.78;1.10;;;;;;;17.79;100.00;96329.22;6089436;23;20018;-91
2022/11/08 01:55:43;;;;;;;5.45;0.90;;;;;;;17.75;100.00;96332.06;6086583;23;20034;-92
2022/11/08 01:58:16;;;;;;;7.65;1.15;;;;;;;17.73;100.00;96368.25;6089153;23;20009;-91
2022/11/08 02:00:42;;;;;;;5.63;1.00;;;;;;;18.18;100.00;96327.09;6085157;23;20011;-92
2022/11/08 02:03:12;;;;;;;7.38;1.08;;;;;;;17.93;100.00;96325.53;6086803;23;20026;-90
2022/11/08 02:05:39;;;;;;;6.35;1.00;;;;;;;17.82;100.00;96328.97;6112015;23;20017;-91
2022/11/08 02:08:28;;;;;;;5.03;0.90;;;;;;;18.28;100.00;96314.00;6111817;23;20075;-91
2022/11/08 02:10:53;;;;;;;8.25;0.88;;;;;;;18.04;100.00;96307.91;6088129;23;20007;-92
2022/11/08 02:13:25;;;;;;;8.23;0.80;;;;;;;18.55;100.00;96309.16;6087930;23;20034;-91
2022/11/08 02:15:51;;;;;;;5.03;0.90;;;;;;;17.89;100.00;96319.63;6089472;23;20053;-92
2022/11/08 02:18:19;;;;;;;5.88;1.08;;;;;;;17.77;100.00;96313.50;6087883;23;20014;-92
2022/11/08 02:21:09;;;;;;;4.40;0.80;;;;;;;17.72;100.00;96305.13;6086765;23;20010;-91
2022/11/08 02:24:12;;;;;;;8.80;1.10;;;;;;;17.96;100.00;96320.84;6087728;23;20029;-92
2022/11/08 02:26:38;;;;;;;6.07;1.02;;;;;;;17.44;100.00;96319.56;6068720;23;20021;-92
2022/11/08 02:29:24;;;;;;;3.88;0.75;;;;;;;17.57;100.00;96329.03;6086662;23;20097;-93
2022/11/08 02:31:50;;;;;;;5.55;0.88;;;;;;;17.48;100.00;96321.00;6086963;23;20021;-91
2022/11/08 02:34:16;;;;;;;7.10;0.80;;;;;;;18.17;100.00;96320.13;6085258;23;20093;-91
2022/11/08 02:36:45;;;;;;;10.00;1.00;;;;;;;17.98;100.00;96312.81;6088725;23;20068;-91
2022/11/08 02:39:11;;;;;;;6.32;0.90;;;;;;;18.21;100.00;96309.19;6086249;23;20021;-91
2022/11/08 02:41:36;;;;;;;3.92;0.73;;;;;;;17.62;100.00;96312.91;6087495;23;20010;-92
2022/11/08 02:44:02;;;;;;;3.97;0.73;;;;;;;17.27;100.00;96332.22;6087635;23;20018;-92
2022/11/08 02:46:27;;;;;;;4.05;0.95;;;;;;;17.05;100.00;96369.84;6085874;23;20574;-91
2022/11/08 02:48:52;;;;;;;5.22;0.80;;;;;;;17.06;100.00;96408.38;6087920;23;20013;-92
2022/11/08 02:51:18;;;;;;;4.55;0.80;;;;;;;17.02;100.00;96426.22;6086622;23;20018;-91
2022/11/08 02:53:43;;;;;;;6.47;0.90;;;;;;;16.46;100.00;96475.78;6085525;23;20022;-93
2022/11/08 02:56:08;;;;;;;4.60;0.80;;;;;;;16.76;100.00;96503.53;6085039;23;20464;-92
2022/11/08 02:58:34;;;;;;;4.30;0.77;;;;;;;16.89;100.00;96504.38;6082854;23;20018;-92
2022/11/08 03:03:34;;;;;;;2.67;0.50;;;;;;;17.26;100.00;96524.63;6057154;23;20030;-90
2022/11/08 03:06:00;;;;;;;6.35;0.95;;;;;;;16.69;100.00;96518.94;6029389;23;20006;-91
2022/11/08 03:08:25;;;;;;;4.85;0.70;;;;;;;16.82;100.00;96500.47;6032286;23;20010;-93
2022/11/08 03:10:51;;;;;;;3.40;0.70;;;;;;;16.74;100.00;96485.22;6033782;23;20011;-92
2022/11/08 03:13:16;;;;;;;4.70;0.70;;;;;;;17.02;100.00;96494.69;6033454;23;20057;-90
2022/11/08 03:15:41;;;;;;;5.95;0.88;;;;;;;16.81;100.00;96488.25;6058376;23;20050;-93
2022/11/08 03:18:07;;;;;;;6.38;0.80;;;;;;;16.66;100.00;96492.81;6059244;23;20073;-92
2022/11/08 03:20:32;;;;;;;4.70;1.13;;;;;;;16.52;100.00;96393.78;6032128;23;20014;-92
2022/11/08 03:23:00;;;;;;;7.45;0.82;;;;;;;16.34;100.00;96373.13;6033362;23;20211;-94
2022/11/08 03:25:26;;;;;;;6.03;0.73;;;;;;;16.83;100.00;96366.13;6057895;23;20452;-92
2022/11/08 03:27:52;;;;;;;6.82;0.90;;;;;;;16.39;100.00;96380.66;6033681;23;20018;-93
2022/11/08 03:30:17;;;;;;;2.10;0.55;;;;;;;17.23;100.00;96384.28;6033276;23;20042;-93
2022/11/08 03:32:45;;;;;;;6.35;0.80;;;;;;;16.50;100.00;96377.28;6058533;23;20019;-93
2022/11/08 03:35:11;;;;;;;5.70;0.60;;;;;;;16.67;100.00;96378.69;6059720;23;20006;-93
2022/11/08 03:37:36;;;;;;;5.10;0.80;;;;;;;16.88;100.00;96356.13;6033546;23;20110;-93
2022/11/08 03:40:02;;;;;;;4.88;0.80;;;;;;;16.49;100.00;96344.03;6032806;23;20046;-92
2022/11/08 03:42:28;;;;;;;8.40;0.77;;;;;;;16.87;100.00;96317.56;6034681;23;20053;-91
2022/11/08 03:44:53;;;;;;;7.90;0.75;;;;;;;16.64;100.00;96323.66;6059243;23;20415;-92
2022/11/08 03:47:19;;;;;;;6.53;0.90;;;;;;;15.99;100.00;96326.47;6032961;23;20029;-92
2022/11/08 03:49:44;;;;;;;3.97;0.50;;;;;;;16.49;100.00;96326.47;6033406;23;20455;-92
2022/11/08 03:52:09;;;;;;;4.45;0.73;;;;;;;16.34;100.00;96312.63;6058559;23;20327;-92
2022/11/08 03:54:35;;;;;;;3.25;0.70;;;;;;;16.40;100.00;96321.03;6060219;23;20068;-95
2022/11/08 03:57:00;;;;;;;5.18;1.08;;;;;;;16.73;100.00;96267.75;6033008;23;20102;-92
2022/11/08 03:59:25;;;;;;;5.63;0.60;;;;;;;17.04;100.00;96249.69;6034938;23;20007;-93
2022/11/08 04:01:51;;;;;;;6.25;0.90;;;;;;;17.06;100.00;96251.25;6058477;23;20015;-92
2022/11/08 04:04:16;;;;;;;4.10;0.80;;;;;;;16.66;100.00;96234.91;6080631;23;20113;-92
2022/11/08 04:06:41;;;;;;;6.28;0.93;;;;;;;16.58;100.00;96238.13;6085295;23;20014;-94
2022/11/08 04:09:07;;;;;;;4.07;0.90;;;;;;;16.59;100.00;96233.69;6087402;23;20089;-92
2022/11/08 04:17:00;;;;;;;4.30;0.90;;;;;;;16.59;100.00;96226.66;6086296;23;20025;-93
2022/11/08 04:22:10;;;;;;;6.72;0.98;;;;;;;15.60;100.00;96251.22;6088177;23;20037;-92
2022/11/08 04:24:36;;;;;;;7.47;1.15;;;;;;;15.87;100.00;96243.22;6085689;23;20011;-93
2022/11/08 04:27:01;;;;;;;5.65;1.10;;;;;;;16.41;100.00;96228.84;6086781;23;20015;-93
2022/11/08 04:29:27;;;;;;;5.03;1.00;;;;;;;16.36;100.00;96220.44;6086586;23;20788;-93
2022/11/08 04:31:52;;;;;;;7.35;1.60;;;;;;;16.77;100.00;96223.59;6086308;23;20005;-93
2022/11/08 04:34:18;;;;;;;5.75;1.23;;;;;;;16.34;100.00;96225.81;6086173;23;20017;-93
2022/11/08 04:36:43;;;;;;;5.25;1.00;;;;;;;16.12;100.00;96233.59;6086317;23;20077;-92
2022/11/08 04:39:08;;;;;;;7.50;1.10;;;;;;;16.26;100.00;96232.59;6085695;23;20697;-93
2022/11/08 04:41:34;;;;;;;4.07;0.98;;;;;;;15.95;100.00;96229.53;6085464;23;20049;-94
2022/11/08 04:43:59;;;;;;;7.47;1.20;;;;;;;15.43;100.00;96237.47;6085185;23;20621;-92
2022/11/08 04:46:26;;;;;;;7.38;1.10;;;;;;;16.40;100.00;96221.91;6084067;23;20014;-93
2022/11/08 04:48:54;;;;;;;6.45;1.20;;;;;;;16.34;100.00;96219.72;6084398;23;20015;-93
2022/11/08 04:51:22;;;;;;;6.63;1.40;;;;;;;16.01;100.00;96223.84;6088226;23;20002;-92
2022/11/08 04:53:48;;;;;;;9.00;1.10;;;;;;;16.35;100.00;96211.72;6086758;23;20174;-93
2022/11/08 04:56:18;;;;;;;8.25;1.45;;;;;;;16.31;100.00;96212.03;6088054;23;20051;-93
2022/11/08 04:58:46;;;;;;;4.95;1.17;;;;;;;15.38;100.00;96222.97;6085016;23;20021;-92
2022/11/08 05:01:14;;;;;;;4.95;1.30;;;;;;;15.89;100.00;96217.66;6087040;23;20022;-93
2022/11/08 05:03:40;;;;;;;3.97;1.00;;;;;;;15.84;100.00;96219.78;6086124;23;20033;-93
2022/11/08 05:06:09;;;;;;;7.70;1.30;;;;;;;15.64;100.00;96224.66;6087391;23;20093;-93
2022/11/08 05:08:35;;;;;;;6.55;1.40;;;;;;;15.79;100.00;96232.38;6089171;23;20002;-92
2022/11/08 05:11:07;;;;;;;11.05;1.63;;;;;;;15.85;100.00;96224.09;6086919;23;20006;-93
2022/11/08 05:13:33;;;;;;;6.93;1.20;;;;;;;15.93;100.00;96236.69;6086378;23;20022;-91
2022/11/08 05:16:00;;;;;;;4.13;1.02;;;;;;;15.84;100.00;96227.69;6087109;23;20018;-92
2022/11/08 05:18:26;;;;;;;6.13;1.40;;;;;;;15.74;100.00;96227.47;6086270;23;20014;-94
2022/11/08 05:23:38;;;;;;;5.95;1.30;;;;;;;16.33;100.00;96213.63;6090317;23;20385;-92
2022/11/08 05:26:04;;;;;;;4.90;1.23;;;;;;;16.59;100.00;96212.63;6087367;23;20084;-92
2022/11/08 05:28:29;;;;;;;6.00;1.80;;;;;;;16.21;100.00;96222.41;6089970;23;20018;-92
2022/11/08 05:30:55;;;;;;;6.22;1.40;;;;;;;17.13;100.00;96206.00;6086426;23;20101;-92
2022/11/08 05:33:22;;;;;;;8.95;1.45;;;;;;;15.94;100.00;96238.38;6090394;23;20570;-93
2022/11/08 05:35:48;;;;;;;6.05;1.58;;;;;;;16.38;100.00;96234.31;6088038;23;20006;-93
2022/11/08 05:38:13;;;;;;;6.05;1.45;;;;;;;16.75;100.00;96236.88;6088140;23;20329;-91
2022/11/08 05:40:40;;;;;;;8.50;1.42;;;;;;;16.81;100.00;96239.06;6087958;23;20452;-94
2022/11/08 05:43:05;;;;;;;5.95;1.52;;;;;;;16.37;100.00;96248.44;6088112;23;20018;-92
2022/11/08 05:45:30;;;;;;;8.40;1.50;;;;;;;16.87;100.00;96267.53;6087849;23;20025;-91
2022/11/08 05:48:02;;;;;;;7.82;1.60;;;;;;;16.52;100.00;96288.53;6088263;23;20436;-94
2022/11/08 05:50:28;;;;;;;9.38;1.90;;;;;;;17.01;100.00;96281.50;6089720;23;20327;-94
2022/11/08 05:52:53;;;;;;;5.53;1.40;;;;;;;16.87;100.00;96290.41;6089974;23;20089;-93
2022/11/08 05:55:19;;;;;;;10.30;1.48;;;;;;;16.72;100.00;96289.75;6088837;23;20040;-92
2022/11/08 05:57:44;;;;;;;10.68;1.80;;;;;;;16.47;100.00;96285.44;6087440;23;20624;-95
2022/11/08 06:00:11;;;;;;;5.68;1.20;;;;;;;16.56;100.00;96300.53;6089408;23;20106;-93
2022/11/08 06:02:36;;;;;;;10.23;1.88;;;;;;;16.29;100.00;96308.63;6088398;23;20480;-92
2022/11/08 06:05:02;;;;;;;8.85;2.30;;;;;;;16.40;100.00;96297.34;6088178;23;20177;-92
2022/11/08 06:07:28;;;;;;;7.68;1.30;;;;;;;17.11;100.00;96294.81;6088909;23;20018;-93
2022/11/08 06:09:53;;;;;;;7.57;1.50;;;;;;;16.45;100.00;96298.69;6087557;23;20014;-92
2022/11/08 06:12:19;;;;;;;8.10;1.58;;;;;;;16.81;100.00;96290.84;6090118;23;20014;-93
2022/11/08 06:14:44;;;;;;;7.25;1.45;;;;;;;16.55;100.00;96293.59;6090072;23;20020;-92
2022/11/08 06:17:10;;;;;;;10.05;1.95;;;;;;;16.53;100.00;96303.38;6087917;23;20014;-91
2022/11/08 06:19:35;;;;;;;6.95;1.33;;;;;;;16.34;100.00;96319.69;6089654;23;20081;-91
2022/11/08 06:22:01;;;;;;;7.43;2.30;;;;;;;17.04;100.00;96308.44;6087590;23;20014;-93
2022/11/08 06:24:26;;;;;;;6.47;1.50;;;;;;;16.47;100.00;96325.72;6087990;23;20092;-92
2022/11/08 06:26:51;;;;;;;5.25;1.38;;;;;;;16.28;100.00;96341.16;6085395;23;20368;-92
2022/11/08 06:29:17;;;;;;;10.88;1.60;;;;;;;15.88;100.00;96352.69;6085118;23;20018;-93
2022/11/08 06:31:42;;;;;;;8.43;1.45;;;;;;;16.52;100.00;96330.66;6086252;23;20053;-93
2022/11/08 06:34:08;;;;;;;6.78;1.52;;;;;;;16.79;100.00;96334.88;6084999;23;20109;-92
2022/11/08 06:36:33;;;;;;;7.47;1.52;;;;;;;16.62;100.00;96347.47;6085036;23;20006;-92
2022/11/08 06:38:59;;;;;;;10.07;1.80;;;;;;;16.12;100.00;96355.38;6084046;23;20010;-92
2022/11/08 06:41:26;;;;;;;8.70;1.63;;;;;;;16.41;100.00;96360.38;6084135;23;20481;-93
2022/11/08 06:43:52;;;;;;;11.82;2.03;;;;;;;16.81;100.00;96346.13;6085640;23;20010;-93
2022/11/08 06:46:17;;;;;;;7.13;1.60;;;;;;;16.78;100.00;96343.72;6084929;23;20025;-94
2022/11/08 06:48:43;;;;;;;10.52;1.88;;;;;;;16.50;100.00;96345.72;6085270;23;20463;-93
2022/11/08 06:51:08;;;;;;;7.53;1.42;;;;;;;17.18;100.00;96340.81;6086101;23;20009;-94
2022/11/08 06:53:34;;;;;;;7.82;1.73;;;;;;;17.73;100.00;96323.44;6085997;23;20025;-94
2022/11/08 06:56:00;;;;;;;8.50;2.05;;;;;;;16.81;100.00;96325.06;6085893;23;20014;-95
2022/11/08 06:58:25;;;;;;;10.85;1.70;;;;;;;17.11;100.00;96342.22;6085900;23;20050;-93
2022/11/08 07:00:51;;;;;;;8.05;1.75;;;;;;;16.85;100.00;96339.69;6086229;23;20002;-92
2022/11/08 07:03:16;;;;;;;6.90;1.58;;;;;;;17.44;100.00;96309.00;6082541;23;20117;-93
2022/11/08 07:05:42;;;;;;;6.88;1.70;;;;;;;17.17;100.00;96313.63;6059074;23;20489;-94
2022/11/08 07:08:07;;;;;;;12.75;2.00;;;;;;;17.57;100.00;96294.78;6032724;23;20049;-89
2022/11/08 07:10:33;;;;;;;14.68;2.17;;;;;;;17.92;100.00;96293.03;6057241;23;19999;-93
2022/11/08 07:13:06;;;;;;;10.52;1.90;;;;;;;18.76;100.00;96248.47;6057363;23;20092;-93
2022/11/08 07:15:33;;;;;;;16.02;2.08;;;;;;;17.34;100.00;96267.59;6057682;23;20085;-92
2022/11/08 07:18:04;;;;;;;10.32;1.60;;;;;;;18.33;100.00;96232.66;6057989;23;20019;-92
2022/11/08 07:20:30;;;;;;;9.45;1.63;;;;;;;17.78;100.00;96217.63;6031466;23;20015;-94
2022/11/08 07:22:57;;;;;;;8.23;1.48;;;;;;;17.91;100.00;96222.78;6002825;23;20067;-93
2022/11/08 07:25:23;;;;;;;7.20;1.48;;;;;;;17.72;100.00;96221.59;6004422;23;20023;-94
2022/11/08 07:27:49;;;;;;;7.70;2.10;;;;;;;17.13;100.00;96232.34;6005825;23;20019;-94
2022/11/08 07:30:14;;;;;;;13.88;2.80;;;;;;;17.79;100.00;96221.13;6030747;23;20054;-95
2022/11/08 07:32:39;;;;;;;10.23;2.15;;;;;;;16.83;100.00;96244.22;6006582;23;20750;-93
2022/11/08 07:35:05;;;;;;;8.45;2.00;;;;;;;16.79;100.00;96250.66;6030778;23;20350;-94
2022/11/08 07:37:32;;;;;;;12.27;2.03;;;;;;;16.88;100.00;96240.31;6029770;23;20004;-93
2022/11/08 07:39:57;;;;;;;9.35;2.10;;;;;;;17.27;100.00;96241.81;6032579;23;20015;-95
2022/11/08 07:42:22;;;;;;;10.65;2.10;;;;;;;17.58;100.00;96235.84;6007246;23;20011;-95
2022/11/08 07:44:48;;;;;;;8.13;1.75;;;;;;;17.20;100.00;96231.75;6032926;23;20082;-94
2022/11/08 07:47:13;;;;;;;14.85;2.03;;;;;;;17.66;100.00;96234.41;6029718;23;20062;-94
2022/11/08 07:49:39;;;;;;;10.55;1.90;;;;;;;17.31;100.00;96233.56;6003407;23;20042;-93
2022/11/08 07:52:04;;;;;;;13.57;2.00;;;;;;;17.68;100.00;96230.69;6029378;23;20027;-93
2022/11/08 07:54:29;;;;;;;9.93;2.92;;;;;;;16.98;100.00;96227.28;6005200;23;20377;-93
2022/11/08 07:56:55;;;;;;;14.88;3.10;;;;;;;17.86;100.00;96233.69;6028638;23;20102;-95
2022/11/08 07:59:20;;;;;;;16.27;2.95;;;;;;;17.32;100.00;96224.69;6006349;23;20015;-93
2022/11/08 08:01:46;;;;;;;10.15;2.50;;;;;;;18.52;100.00;96222.28;6006692;23;20015;-94
2022/11/08 08:04:11;;;;;;;9.82;2.35;;;;;;;17.65;100.00;96244.13;6028514;23;20095;-93
2022/11/08 08:06:37;;;;;;;10.73;2.35;;;;;;;17.89;100.00;96232.63;6005281;23;20022;-92
2022/11/08 08:09:03;;;;;;;11.73;2.38;;;;;;;17.86;100.00;96224.94;6030531;23;20023;-93
2022/11/08 08:11:28;;;;;;;10.80;2.40;;;;;;;18.49;100.00;96216.44;6004549;23;20426;-94
2022/11/08 08:13:55;;;;;;;12.65;2.17;;;;;;;18.96;100.00;96197.66;6032003;23;20422;-94
2022/11/08 08:16:21;;;;;;;10.93;2.47;;;;;;;18.71;100.00;96192.56;6007597;23;20355;-96
2022/11/08 08:18:50;;;;;;;11.90;2.05;;;;;;;17.92;100.00;96198.13;6032491;23;20106;-94
2022/11/08 08:21:16;;;;;;;11.85;2.55;;;;;;;18.31;100.00;96195.84;6032188;23;20003;-95
2022/11/08 08:23:42;;;;;;;14.05;2.72;;;;;;;18.02;100.00;96180.63;6032416;23;20054;-91
2022/11/08 08:26:08;;;;;;;13.32;2.58;;;;;;;19.23;100.00;96163.63;6032276;23;20015;-93
2022/11/08 08:28:33;;;;;;;12.75;2.30;;;;;;;18.66;100.00;96164.88;6031555;23;20229;-95
2022/11/08 08:30:59;;;;;;;12.45;2.08;;;;;;;18.63;100.00;96139.56;6009705;23;20050;-94
2022/11/08 08:33:24;;;;;;;11.43;1.90;;;;;;;18.80;100.00;96132.88;6035378;23;20083;-96
2022/11/08 08:35:53;;;;;;;11.40;1.92;;;;;;;18.50;100.00;96144.22;6008875;23;20045;-93
2022/11/08 08:38:19;;;;;;;13.07;2.55;;;;;;;18.46;100.00;96132.25;6010203;23;20382;-95
2022/11/08 08:40:44;;;;;;;13.77;2.05;;;;;;;18.81;100.00;96125.81;6008865;23;20019;-94
2022/11/08 08:43:10;;;;;;;16.23;2.67;;;;;;;18.08;100.00;96135.28;6035666;23;20637;-93
2022/11/08 08:45:35;;;;;;;13.85;2.30;;;;;;;18.55;100.00;96139.38;6035078;23;20086;-95
2022/11/08 08:48:02;;;;;;;15.05;1.92;;;;;;;18.92;100.00;96131.03;6008271;23;20022;-91
2022/11/08 08:50:30;;;;;;;13.98;2.80;;;;;;;18.79;100.00;96131.22;6031923;23;20006;-92
2022/11/08 08:53:03;;;;;;;15.68;2.33;;;;;;;19.59;100.00;96137.56;6007370;23;20011;-94
2022/11/08 08:55:29;;;;;;;12.90;2.47;;;;;;;17.92;100.00;96155.94;6006022;23;20015;-94
2022/11/08 08:57:54;;;;;;;15.93;2.60;;;;;;;19.15;100.00;96144.06;6028385;23;20071;-93
2022/11/08 09:00:22;;;;;;;14.35;2.38;;;;;;;18.47;100.00;96144.44;6029028;23;20349;-93
2022/11/08 09:02:47;;;;;;;16.63;2.40;;;;;;;18.57;100.00;96143.56;6003280;23;20019;-94
2022/11/08 09:05:13;;;;;;;12.35;2.85;;;;;;;19.18;100.00;96127.97;6026792;23;20003;-95
2022/11/08 09:07:39;;;;;;;13.88;2.35;;;;;;;19.41;100.00;96145.31;6029701;23;20003;-94
2022/11/08 09:10:06;;;;;;;13.90;2.50;;;;;;;18.80;100.00;96147.88;6005754;23;20015;-92
2022/11/08 09:12:38;;;;;;;14.20;2.58;;;;;;;19.15;100.00;96142.28;6005350;23;20015;-94
2022/11/08 09:15:04;;;;;;;17.65;3.00;;;;;;;19.02;100.00;96129.28;6029472;23;20007;-93
2022/11/08 09:17:30;;;;;;;12.27;2.17;;;;;;;18.50;100.00;96131.03;6004404;23;20470;-94
2022/11/08 09:19:55;;;;;;;17.17;3.13;;;;;;;19.37;100.00;96132.50;6004063;23;20151;-93
2022/11/08 09:22:21;;;;;;;12.93;2.85;;;;;;;19.47;100.00;96135.16;6001986;23;20015;-95
2022/11/08 09:24:46;;;;;;;17.95;2.83;;;;;;;19.32;100.00;96122.34;6005133;23;20015;-93
2022/11/08 09:27:12;;;;;;;14.93;2.15;;;;;;;19.02;100.00;96128.44;6003179;23;20029;-94
2022/11/08 09:29:37;;;;;;;14.05;2.42;;;;;;;19.06;100.00;96129.88;6005956;23;20022;-95
2022/11/08 09:32:03;;;;;;;14.70;3.13;;;;;;;19.35;100.00;96127.34;6003878;23;20421;-94
2022/11/08 09:34:28;;;;;;;14.18;2.00;;;;;;;19.87;100.00;96118.47;6005408;23;20008;-93
2022/11/08 09:36:54;;;;;;;13.85;2.60;;;;;;;20.13;100.00;96105.56;6029946;23;20015;-95
2022/11/08 09:39:19;;;;;;;12.38;1.90;;;;;;;20.27;100.00;96097.19;6029125;23;20390;-93
2022/11/08 09:41:45;;;;;;;14.10;2.38;;;;;;;20.28;100.00;96100.69;6032219;23;20030;-94
2022/11/08 09:44:48;;;;;;;13.60;2.25;;;;;;;19.38;100.00;96103.28;6029250;23;20046;-95
2022/11/08 09:47:25;;;;;;;15.73;2.80;;;;;;;19.45;100.00;96107.06;6032026;23;20039;-92
2022/11/08 09:50:00;;;;;;;18.10;2.50;;;;;;;18.69;100.00;96123.25;6005260;23;20007;-94
2022/11/08 09:52:29;;;;;;;18.50;2.63;;;;;;;21.98;100.00;96088.25;6030721;23;20012;-94
2022/11/08 09:55:20;;;;;;;17.80;2.50;;;;;;;22.70;100.00;96083.88;6028599;23;20007;-93
2022/11/08 09:57:52;;;;;;;16.73;2.80;;;;;;;24.65;100.00;96059.94;6002838;23;20692;-93
2022/11/08 10:00:17;;;;;;;19.20;2.50;;;;;;;19.91;100.00;96082.84;6002954;23;20328;-94
2022/11/08 10:02:43;;;;;;;16.83;2.58;;;;;;;19.20;100.00;96074.03;6006047;23;20019;-93
2022/11/08 10:05:15;;;;;;;10.80;2.00;;;;;;;19.07;100.00;96079.53;6029986;23;20027;-93
2022/11/08 10:07:52;;;;;;;17.15;2.85;;;;;;;18.28;100.00;96102.94;6004505;23;20074;-94
2022/11/08 10:10:35;;;;;;;16.83;2.80;;;;;;;17.90;100.00;96111.19;6002931;23;20011;-92
2022/11/08 10:13:14;;;;;;;18.05;2.60;;;;;;;18.43;100.00;96105.13;6030362;23;20422;-95
2022/11/08 10:15:44;;;;;;;15.20;2.15;;;;;;;18.40;100.00;96112.50;6029545;23;20007;-95
2022/11/08 10:18:27;;;;;;;15.27;2.85;;;;;;;18.00;100.00;96105.22;6031102;23;20019;-94
2022/11/08 10:21:07;;;;;;;17.65;2.55;;;;;;;18.85;100.00;96091.06;6030167;23;20043;-94
2022/11/08 10:23:49;;;;;;;19.20;2.63;;;;;;;18.76;100.00;96099.78;6029727;23;20086;-95
2022/11/08 10:26:17;;;;;;;15.48;2.50;;;;;;;18.25;100.00;96098.75;6030923;23;20007;-94
2022/11/08 10:28:56;;;;;;;14.95;2.42;;;;;;;18.16;100.00;96083.69;6031471;23;20014;-94
2022/11/08 10:31:21;;;;;;;16.83;3.03;;;;;;;19.83;100.00;96048.31;6029791;23;20027;-94
2022/11/08 10:33:56;;;;;;;20.30;2.30;;;;;;;18.41;100.00;96056.94;6031638;23;20027;-94
2022/11/08 10:36:27;;;;;;;13.25;2.55;;;;;;;20.96;100.00;96049.44;6030842;23;20429;-95
2022/11/08 10:38:55;;;;;;;17.05;2.55;;;;;;;21.13;100.00;96038.06;6003502;23;20066;-95
2022/11/08 10:41:55;;;;;;;17.73;3.05;;;;;;;20.06;100.00;96031.19;6004893;23;20011;-95
2022/11/08 10:44:25;;;;;;;23.67;2.80;;;;;;;20.92;100.00;96042.75;6005259;23;20093;-93
2022/11/08 10:46:58;;;;;;;10.95;2.13;;;;;;;18.88;100.00;96053.03;6005835;23;20023;-94
2022/11/08 10:49:33;;;;;;;13.98;1.98;;;;;;;20.38;100.00;96030.03;6005991;23;20015;-95
2022/11/08 10:52:11;;;;;;;19.92;2.58;;;;;;;20.60;100.00;96036.81;6027528;23;20007;-94
2022/11/08 10:54:57;;;;;;;19.48;2.97;;;;;;;18.96;100.00;96053.22;6004621;23;20011;-93
2022/11/08 10:57:32;;;;;;;12.93;2.05;;;;;;;20.38;100.00;96059.16;6004855;23;20011;-94
2022/11/08 11:00:19;;;;;;;13.18;2.60;;;;;;;18.61;100.00;96041.22;6003845;23;20022;-93
2022/11/08 11:02:49;;;;;;;17.98;2.63;;;;;;;18.29;100.00;96060.59;6003288;23;20020;-92
2022/11/08 11:05:15;;;;;;;21.67;2.92;;;;;;;19.98;100.00;96040.81;6030352;23;20054;-93
2022/11/08 11:07:43;;;;;;;13.60;2.58;;;;;;;20.28;100.00;96029.22;6030212;23;20501;-94
2022/11/08 11:10:39;;;;;;;16.92;2.88;;;;;;;20.18;100.00;96028.38;6026482;23;20053;-94
2022/11/08 11:13:21;;;;;;;19.92;2.33;;;;;;;20.21;100.00;96020.16;5992237;23;20079;-93
2022/11/08 11:15:58;;;;;;;12.90;2.03;;;;;;;19.76;100.00;96022.41;6031583;23;20007;-93
2022/11/08 11:18:49;;;;;;;12.98;2.33;;;;;;;19.87;100.00;96028.56;6030858;23;20086;-94
2022/11/08 11:21:17;;;;;;;11.48;2.10;;;;;;;21.14;100.00;96012.38;6016654;23;20011;-94
2022/11/08 11:23:45;;;;;;;13.30;2.67;;;;;;;20.61;100.00;96019.09;6029182;23;20039;-94
2022/11/08 11:26:17;;;;;;;16.20;2.30;;;;;;;20.23;100.00;96008.47;6029911;23;20403;-94
2022/11/08 11:29:02;;;;;;;14.60;2.08;;;;;;;19.04;100.00;96015.56;6030888;23;20031;-95
2022/11/08 11:31:29;;;;;;;14.05;2.35;;;;;;;19.76;100.00;96005.69;6029591;23;20019;-93
2022/11/08 11:33:54;;;;;;;11.80;1.80;;;;;;;20.19;100.00;95990.38;6028192;23;20082;-94
2022/11/08 11:36:26;;;;;;;13.00;2.20;;;;;;;20.13;100.00;95983.84;6029632;23;20019;-93
2022/11/08 11:38:59;;;;;;;12.10;2.50;;;;;;;19.81;100.00;95989.44;6031009;23;20023;-94
2022/11/08 11:41:42;;;;;;;17.42;2.75;;;;;;;19.58;100.00;95989.66;6028709;23;20070;-95
2022/11/08 11:44:16;;;;;;;15.37;2.33;;;;;;;19.67;100.00;95986.22;6027979;23;20394;-93
2022/11/08 11:46:51;;;;;;;16.08;2.13;;;;;;;19.28;100.00;95986.16;6027814;23;20234;-94
2022/11/08 11:49:19;;;;;;;10.95;1.73;;;;;;;19.89;100.00;95976.38;6026401;23;20063;-93